Time;durP1;ratioP1;P1;durP2;ratioP2;P2;SDS_P1;SDS_P2;PMS_P1;PMS_P2;Temp;Humidity;BMP_temperature;BMP_pressure;BME280_temperature;BME280_humidity;BME280_pressure;Samples;Min_cycle;Max_cycle;Signal;HPM_P1;HPM_P2
2021/08/14 00:02:17;;;;;;;9.57;7.20;;;;;;;20.48;81.76;101104.44;5064161;28;20194;-73
2021/08/14 00:04:44;;;;;;;7.87;6.40;;;;;;;20.44;82.58;101106.44;5060418;28;20194;-73
2021/08/14 00:07:11;;;;;;;10.50;7.13;;;;;;;20.43;82.39;101112.66;5068760;28;20223;-74
2021/08/14 00:09:37;;;;;;;8.93;6.90;;;;;;;20.41;82.66;101109.25;5072178;28;20221;-74
2021/08/14 00:12:05;;;;;;;7.37;6.30;;;;;;;20.40;82.71;101112.84;5064232;28;20215;-73
2021/08/14 00:14:32;;;;;;;7.77;6.50;;;;;;;20.41;83.07;101111.91;5057377;28;20199;-73
2021/08/14 00:17:00;;;;;;;7.57;6.70;;;;;;;20.40;82.81;101112.84;5064373;28;20225;-73
2021/08/14 00:19:26;;;;;;;8.77;6.70;;;;;;;20.38;83.06;101115.56;5064815;28;20699;-73
2021/08/14 00:21:53;;;;;;;10.30;7.33;;;;;;;20.42;82.91;101110.94;5064825;28;20667;-73
2021/08/14 00:24:19;;;;;;;10.47;7.27;;;;;;;20.40;83.08;101115.47;5068578;28;20199;-73
2021/08/14 00:26:46;;;;;;;8.47;6.43;;;;;;;20.41;83.14;101117.19;5066317;28;20225;-74
2021/08/14 00:29:12;;;;;;;7.83;6.53;;;;;;;20.41;83.63;101118.03;5050685;28;20449;-73
2021/08/14 00:31:39;;;;;;;10.23;7.40;;;;;;;20.44;83.26;101114.38;5061497;28;20212;-74
2021/08/14 00:34:06;;;;;;;8.60;7.23;;;;;;;20.42;83.54;101117.13;5077533;28;20269;-74
2021/08/14 00:36:33;;;;;;;10.73;7.10;;;;;;;20.41;83.80;101107.44;5073703;28;20632;-74
2021/08/14 00:38:59;;;;;;;8.43;6.90;;;;;;;20.40;83.53;101110.19;5062668;28;20595;-73
2021/08/14 00:41:26;;;;;;;8.70;6.87;;;;;;;20.37;83.99;101111.25;5071226;28;20285;-74
2021/08/14 00:43:52;;;;;;;8.87;6.87;;;;;;;20.36;84.01;101108.69;5062291;28;20205;-74
2021/08/14 00:46:19;;;;;;;10.93;6.70;;;;;;;20.37;83.81;101111.25;5073299;28;20228;-74
2021/08/14 00:48:46;;;;;;;9.17;6.87;;;;;;;20.33;83.96;101119.44;5074671;28;20194;-74
2021/08/14 00:51:14;;;;;;;8.90;7.30;;;;;;;20.29;84.69;101131.16;5063911;28;20243;-74
2021/08/14 00:53:40;;;;;;;10.87;7.03;;;;;;;20.28;84.89;101132.97;5064245;28;20813;-74
2021/08/14 00:56:07;;;;;;;8.93;6.97;;;;;;;20.25;84.75;101133.16;5081362;28;20201;-73
2021/08/14 00:58:34;;;;;;;9.93;6.53;;;;;;;20.21;85.66;101126.31;5069463;28;20730;-73
2021/08/14 01:01:00;;;;;;;9.37;7.17;;;;;;;20.22;84.92;101128.88;5071241;28;20432;-74
2021/08/14 01:03:28;;;;;;;7.80;6.70;;;;;;;20.20;85.31;101121.97;5070859;28;20289;-74
2021/08/14 01:05:56;;;;;;;8.13;6.67;;;;;;;20.16;85.37;101129.25;5070444;28;20210;-74
2021/08/14 01:08:23;;;;;;;8.00;6.37;;;;;;;20.12;85.81;101137.44;5070770;28;20576;-74
2021/08/14 01:10:50;;;;;;;10.20;6.93;;;;;;;20.09;86.22;101135.84;5068903;28;20754;-74
2021/08/14 01:13:16;;;;;;;8.07;7.03;;;;;;;20.07;86.88;101144.78;5064353;28;20766;-74
2021/08/14 01:15:44;;;;;;;8.50;7.10;;;;;;;20.05;86.71;101144.88;5063529;28;20539;-74
2021/08/14 01:18:11;;;;;;;8.83;6.90;;;;;;;20.04;86.79;101144.03;5074103;28;20226;-74
2021/08/14 01:20:38;;;;;;;8.53;7.00;;;;;;;20.04;87.26;101146.69;5062385;28;20229;-74
2021/08/14 01:23:05;;;;;;;10.60;7.07;;;;;;;20.04;87.10;101151.13;5080908;28;20603;-74
2021/08/14 01:25:33;;;;;;;8.47;7.23;;;;;;;20.08;86.90;101157.09;5064578;28;20249;-73
2021/08/14 01:28:00;;;;;;;10.67;7.50;;;;;;;20.07;87.59;101150.97;5079071;28;20233;-74
2021/08/14 01:30:27;;;;;;;9.03;7.30;;;;;;;20.08;87.44;101157.09;5067710;28;20705;-73
2021/08/14 01:32:54;;;;;;;9.83;7.43;;;;;;;20.07;87.60;101158.03;5063419;28;20215;-74
2021/08/14 01:35:21;;;;;;;10.87;6.73;;;;;;;20.07;87.44;101161.56;5070188;28;20555;-74
2021/08/14 01:37:48;;;;;;;7.80;6.93;;;;;;;20.05;87.39;101158.09;5074013;28;20321;-73
2021/08/14 01:40:14;;;;;;;8.70;6.80;;;;;;;20.05;87.70;101158.97;5053604;28;20212;-73
2021/08/14 01:42:40;;;;;;;9.03;7.00;;;;;;;20.03;87.37;101162.63;5055504;28;20832;-74
2021/08/14 01:45:09;;;;;;;8.43;7.33;;;;;;;20.01;87.27;101169.81;5061802;28;20208;-73
2021/08/14 01:47:35;;;;;;;8.47;7.13;;;;;;;20.00;87.73;101170.78;5068080;28;20578;-74
2021/08/14 01:50:02;;;;;;;9.03;7.57;;;;;;;19.96;87.92;101172.72;5065834;28;20583;-74
2021/08/14 01:52:29;;;;;;;8.90;7.00;;;;;;;19.94;87.85;101174.59;5070849;28;20209;-74
2021/08/14 01:54:55;;;;;;;10.23;7.07;;;;;;;19.87;88.94;101175.91;5060818;28;20203;-74
2021/08/14 01:57:21;;;;;;;7.93;6.90;;;;;;;19.82;88.83;101170.88;5062453;28;20243;-75
2021/08/14 01:59:48;;;;;;;10.03;6.87;;;;;;;19.77;88.91;101172.94;5071940;28;20567;-74
2021/08/14 02:02:15;;;;;;;9.23;7.30;;;;;;;19.73;89.15;101176.63;5066377;28;20575;-74
2021/08/14 02:04:42;;;;;;;9.37;6.97;;;;;;;19.70;88.95;101176.81;5067938;28;20219;-74
2021/08/14 02:07:08;;;;;;;8.13;7.00;;;;;;;19.67;88.66;101182.28;5070037;28;20223;-74
2021/08/14 02:09:35;;;;;;;9.47;7.03;;;;;;;19.66;89.50;101185.84;5060219;28;20277;-73
2021/08/14 02:12:01;;;;;;;8.30;6.83;;;;;;;19.62;89.03;101189.63;5065400;28;20203;-73
2021/08/14 02:14:27;;;;;;;9.57;6.90;;;;;;;19.59;89.49;101190.63;5069178;28;20680;-74
2021/08/14 02:16:54;;;;;;;8.57;6.60;;;;;;;19.58;88.96;101188.09;5066503;28;20222;-74
2021/08/14 02:19:22;;;;;;;8.37;6.60;;;;;;;19.56;88.98;101190.81;5062908;28;20198;-74
2021/08/14 02:21:48;;;;;;;7.97;6.53;;;;;;;19.52;89.77;101191.91;5081580;28;20205;-73
2021/08/14 02:24:14;;;;;;;8.67;6.47;;;;;;;19.51;89.66;101186.69;5063972;28;20241;-73
2021/08/14 02:26:41;;;;;;;8.03;6.10;;;;;;;19.47;89.58;101191.28;5074419;28;20527;-74
2021/08/14 02:29:07;;;;;;;8.17;6.53;;;;;;;19.45;90.03;101193.16;5065121;28;20289;-74
2021/08/14 02:31:34;;;;;;;7.73;6.30;;;;;;;19.41;90.76;101195.13;5068538;28;20714;-74
2021/08/14 02:34:00;;;;;;;8.47;5.70;;;;;;;19.37;90.99;101195.41;5067677;28;20230;-74
2021/08/14 02:36:28;;;;;;;8.50;6.10;;;;;;;19.30;91.28;101193.06;5061468;28;20624;-74
2021/08/14 02:38:55;;;;;;;7.97;6.13;;;;;;;19.28;91.42;101197.59;5069470;28;20199;-74
2021/08/14 02:41:21;;;;;;;7.83;6.33;;;;;;;19.28;90.22;101197.59;5074546;28;20205;-74
2021/08/14 02:43:48;;;;;;;7.67;6.60;;;;;;;19.26;90.75;101196.81;5064086;28;20719;-73
2021/08/14 02:46:14;;;;;;;8.63;6.23;;;;;;;19.22;91.04;101197.91;5067196;28;20206;-74
2021/08/14 02:48:41;;;;;;;7.43;6.17;;;;;;;19.19;90.97;101199.84;5062956;28;20199;-73
2021/08/14 02:51:07;;;;;;;7.83;6.30;;;;;;;19.14;91.33;101194.84;5061131;28;20728;-74
2021/08/14 02:53:35;;;;;;;9.27;6.73;;;;;;;19.10;91.98;101194.16;5058888;28;20766;-74
2021/08/14 02:56:01;;;;;;;8.97;6.43;;;;;;;19.09;91.67;101204.78;5070832;28;20208;-74
2021/08/14 02:58:28;;;;;;;9.87;7.03;;;;;;;19.07;91.88;101204.03;5073708;28;20253;-74
2021/08/14 03:00:55;;;;;;;7.57;6.13;;;;;;;19.05;92.44;101198.81;5066013;28;20713;-74
2021/08/14 03:03:21;;;;;;;7.53;6.47;;;;;;;19.08;92.31;101203.06;5057406;28;20222;-74
2021/08/14 03:05:48;;;;;;;8.57;6.70;;;;;;;19.05;92.92;101216.44;5060692;28;20207;-73
2021/08/14 03:08:14;;;;;;;7.80;6.40;;;;;;;19.03;92.62;101211.25;5077581;28;20222;-74
2021/08/14 03:10:43;;;;;;;9.07;6.23;;;;;;;19.00;92.85;101207.94;5070761;28;20206;-74
2021/08/14 03:13:10;;;;;;;7.60;6.40;;;;;;;18.98;92.67;101210.66;5063075;28;20699;-73
2021/08/14 03:15:36;;;;;;;8.43;6.37;;;;;;;18.97;92.73;101208.91;5068448;28;20702;-73
2021/08/14 03:18:03;;;;;;;7.23;6.10;;;;;;;18.92;92.41;101209.16;5073243;28;20231;-74
2021/08/14 03:20:29;;;;;;;8.27;6.70;;;;;;;18.87;92.16;101207.69;5068174;28;20203;-74
2021/08/14 03:22:56;;;;;;;7.33;6.53;;;;;;;18.84;92.26;101224.56;5074596;28;20222;-74
2021/08/14 03:25:23;;;;;;;6.90;5.50;;;;;;;18.77;91.86;101216.97;5063421;28;20203;-74
2021/08/14 03:27:51;;;;;;;8.40;5.87;;;;;;;18.70;91.92;101221.75;5065829;28;20233;-74
2021/08/14 03:30:18;;;;;;;7.97;5.97;;;;;;;18.64;92.56;101220.25;5065493;28;20202;-73
2021/08/14 03:32:45;;;;;;;7.83;6.17;;;;;;;18.60;91.82;101218.69;5068078;28;20587;-74
2021/08/14 03:35:12;;;;;;;7.27;5.70;;;;;;;18.55;92.57;101231.28;5066159;28;20667;-74
2021/08/14 03:37:39;;;;;;;7.90;5.97;;;;;;;18.53;92.73;101234.00;5069442;28;20229;-74
2021/08/14 03:40:07;;;;;;;7.50;5.87;;;;;;;18.51;93.30;101235.00;5061364;28;20656;-74
2021/08/14 03:42:33;;;;;;;7.90;5.80;;;;;;;18.48;93.06;101236.00;5065714;28;20195;-73
2021/08/14 03:45:01;;;;;;;8.07;6.33;;;;;;;18.44;93.29;101241.53;5059177;28;20194;-74
2021/08/14 03:47:27;;;;;;;7.53;6.20;;;;;;;18.42;93.55;101246.88;5063579;28;20222;-74
2021/08/14 03:49:54;;;;;;;9.00;6.40;;;;;;;18.38;93.34;101252.38;5077229;28;20580;-74
2021/08/14 03:52:23;;;;;;;7.70;5.83;;;;;;;18.32;93.48;101253.53;5065535;28;20202;-74
2021/08/14 03:54:49;;;;;;;8.47;6.03;;;;;;;18.28;93.25;101252.00;5056305;28;20297;-74
2021/08/14 03:57:15;;;;;;;6.83;6.00;;;;;;;18.24;93.15;101256.56;5058541;28;20227;-74
2021/08/14 03:59:42;;;;;;;7.20;5.63;;;;;;;18.22;92.94;101254.91;5056258;28;20299;-73
2021/08/14 04:02:09;;;;;;;8.00;5.77;;;;;;;18.17;92.40;101252.50;5064971;28;20203;-74
2021/08/14 04:04:36;;;;;;;10.03;5.73;;;;;;;18.09;92.52;101252.84;5057713;28;20212;-74
2021/08/14 04:07:02;;;;;;;7.57;5.70;;;;;;;18.06;92.05;101254.78;5065592;28;20691;-74
2021/08/14 04:09:29;;;;;;;8.83;5.77;;;;;;;17.98;92.06;101255.16;5068686;28;20213;-73
2021/08/14 04:11:55;;;;;;;6.40;5.27;;;;;;;17.91;92.03;101251.09;5062574;28;20206;-74
2021/08/14 04:14:21;;;;;;;6.73;5.53;;;;;;;17.82;91.85;101256.75;5065724;28;20214;-74
2021/08/14 04:16:48;;;;;;;7.60;5.60;;;;;;;17.78;91.25;101254.28;5059843;28;20227;-74
2021/08/14 04:19:15;;;;;;;6.10;5.10;;;;;;;17.70;91.05;101258.19;5069942;28;20212;-73
2021/08/14 04:21:44;;;;;;;7.90;5.17;;;;;;;17.65;89.76;101253.13;5070513;28;20201;-74
2021/08/14 04:24:11;;;;;;;7.03;4.80;;;;;;;17.61;89.11;101259.47;5065957;28;20687;-73
2021/08/14 04:26:37;;;;;;;6.27;4.80;;;;;;;17.60;87.71;101261.22;5072421;28;20803;-73
2021/08/14 04:32:51;;;;;;;5.90;4.20;;;;;;;17.55;87.73;101262.38;5068075;28;20309;-73
2021/08/14 04:35:19;;;;;;;5.40;4.10;;;;;;;17.54;87.30;101260.69;5082802;28;20254;-74
2021/08/14 04:37:45;;;;;;;5.77;4.07;;;;;;;17.53;86.18;101265.06;5077254;28;20229;-73
2021/08/14 04:40:15;;;;;;;6.10;4.27;;;;;;;17.53;86.03;101267.72;5072340;28;20293;-73
2021/08/14 04:42:42;;;;;;;6.13;4.33;;;;;;;17.58;87.64;101271.00;5082192;28;20600;-73
2021/08/14 04:45:10;;;;;;;6.27;4.07;;;;;;;17.58;86.62;101275.41;5067967;28;20207;-74
2021/08/14 04:47:36;;;;;;;4.97;4.20;;;;;;;17.61;86.08;101277.94;5077442;28;20221;-74
2021/08/14 04:50:03;;;;;;;5.40;4.23;;;;;;;17.67;86.29;101276.78;5067725;28;20206;-74
2021/08/14 04:52:31;;;;;;;6.40;4.13;;;;;;;17.72;86.16;101277.44;5069094;28;20578;-74
2021/08/14 04:54:58;;;;;;;6.03;4.17;;;;;;;17.75;86.53;101278.16;5073745;28;20313;-74
2021/08/14 04:57:24;;;;;;;5.60;3.83;;;;;;;17.74;85.47;101278.22;5063579;28;20222;-74
2021/08/14 04:59:51;;;;;;;5.87;4.00;;;;;;;17.74;85.21;101281.69;5071855;28;20207;-73
2021/08/14 05:02:17;;;;;;;5.53;4.20;;;;;;;17.75;84.76;101283.44;5063600;28;20206;-73
2021/08/14 05:04:44;;;;;;;5.73;4.30;;;;;;;17.74;85.17;101278.22;5072814;28;20221;-73
2021/08/14 05:07:10;;;;;;;6.20;4.33;;;;;;;17.74;87.02;101273.78;5075188;28;20223;-74
2021/08/14 05:09:39;;;;;;;7.17;3.40;;;;;;;17.73;87.19;101279.13;5073312;28;20671;-73
2021/08/14 05:12:06;;;;;;;6.10;3.87;;;;;;;17.68;86.82;101282.00;5068615;28;20199;-73
2021/08/14 05:14:32;;;;;;;6.40;4.10;;;;;;;17.64;86.15;101279.56;5071114;28;20210;-73
2021/08/14 05:16:59;;;;;;;6.13;3.73;;;;;;;17.60;85.81;101279.69;5063575;28;20231;-73
2021/08/14 05:19:25;;;;;;;6.10;3.80;;;;;;;17.56;85.76;101275.50;5069408;28;20202;-73
2021/08/14 05:21:52;;;;;;;4.50;3.80;;;;;;;17.55;85.73;101281.69;5083385;28;20561;-73
2021/08/14 05:24:18;;;;;;;4.33;3.73;;;;;;;17.62;87.53;101279.63;5064292;28;20208;-73
2021/08/14 05:26:46;;;;;;;5.37;3.67;;;;;;;17.66;85.99;101283.84;5070444;28;20579;-73
2021/08/14 05:29:13;;;;;;;4.90;3.63;;;;;;;17.70;86.54;101279.28;5069730;28;20199;-73
2021/08/14 05:31:39;;;;;;;4.87;3.67;;;;;;;17.62;84.45;101287.53;5074809;28;20535;-73
2021/08/14 05:34:05;;;;;;;5.03;3.60;;;;;;;17.56;85.40;101290.47;5067796;28;20256;-73
2021/08/14 05:36:32;;;;;;;5.50;3.57;;;;;;;17.53;85.10;101291.44;5070280;28;20202;-73
2021/08/14 05:39:00;;;;;;;5.63;3.90;;;;;;;17.55;85.86;101286.09;5071160;28;20198;-73
2021/08/14 05:41:26;;;;;;;5.47;4.03;;;;;;;17.60;86.89;101290.22;5073859;28;20683;-73
2021/08/14 05:43:54;;;;;;;5.30;3.57;;;;;;;17.72;85.68;101283.56;5075167;28;20205;-73
2021/08/14 05:46:20;;;;;;;6.07;4.00;;;;;;;17.84;85.44;101284.78;5068253;28;20195;-73
2021/08/14 05:48:46;;;;;;;4.93;3.83;;;;;;;17.95;83.60;101294.88;5070514;28;20268;-74
2021/08/14 05:51:13;;;;;;;7.97;4.23;;;;;;;18.05;84.29;101298.78;5068276;28;20198;-73
2021/08/14 05:54:27;;;;;;;4.97;3.60;;;;;;;18.18;84.18;101288.50;5062833;28;20218;-74
2021/08/14 05:56:53;;;;;;;5.30;4.07;;;;;;;18.34;82.52;101292.13;5058427;28;20560;-74
2021/08/14 05:59:21;;;;;;;6.57;4.10;;;;;;;18.45;82.13;101296.03;5071821;28;20694;-73
2021/08/14 06:01:47;;;;;;;6.70;3.80;;;;;;;18.59;81.46;101303.28;5070861;28;20208;-73
2021/08/14 06:04:14;;;;;;;5.50;3.63;;;;;;;18.66;80.59;101297.63;5065763;28;20195;-73
2021/08/14 06:06:43;;;;;;;5.77;4.10;;;;;;;18.82;80.66;101304.81;5076646;28;20223;-74
2021/08/14 06:09:10;;;;;;;5.77;4.20;;;;;;;18.88;79.85;101301.88;5068042;28;20260;-74
2021/08/14 06:11:36;;;;;;;5.20;3.60;;;;;;;18.83;79.49;101304.75;5067907;28;20686;-76
2021/08/14 06:14:02;;;;;;;4.93;3.87;;;;;;;18.94;79.17;101304.19;5067683;28;20214;-76
2021/08/14 06:16:30;;;;;;;5.20;3.80;;;;;;;19.01;78.42;101302.09;5068262;28;20220;-76
2021/08/14 06:22:44;;;;;;;7.37;3.97;;;;;;;19.19;77.66;101305.59;5069618;28;20194;-76
2021/08/14 06:25:12;;;;;;;7.67;4.20;;;;;;;19.26;77.03;101309.63;5068117;28;20204;-76
2021/08/14 06:27:42;;;;;;;6.17;4.03;;;;;;;19.33;77.68;101307.50;5069577;28;20666;-76
2021/08/14 06:30:09;;;;;;;6.53;4.03;;;;;;;19.38;77.55;101303.69;5077298;28;20273;-76
2021/08/14 06:32:37;;;;;;;7.37;4.10;;;;;;;19.50;78.06;101299.56;5064506;28;20215;-76
2021/08/14 06:35:05;;;;;;;5.83;3.90;;;;;;;19.59;78.37;101306.16;5066080;28;20679;-76
2021/08/14 06:37:31;;;;;;;8.47;4.27;;;;;;;19.59;77.67;101303.50;5068139;28;20620;-76
2021/08/14 06:39:59;;;;;;;5.70;3.90;;;;;;;19.65;78.04;101301.38;5070960;28;20209;-76
2021/08/14 06:42:26;;;;;;;6.00;3.80;;;;;;;19.76;77.79;101300.84;5068709;28;20682;-76
2021/08/14 06:44:52;;;;;;;6.67;4.80;;;;;;;19.86;77.18;101309.16;5070622;28;20202;-76
2021/08/14 06:47:19;;;;;;;10.53;4.67;;;;;;;19.90;76.38;101309.84;5073128;28;20241;-76
2021/08/14 06:49:47;;;;;;;5.57;4.17;;;;;;;19.97;76.36;101313.84;5068331;28;20193;-76
2021/08/14 06:52:13;;;;;;;6.00;4.03;;;;;;;20.00;76.69;101313.69;5064777;28;20203;-76
2021/08/14 06:54:39;;;;;;;6.00;4.07;;;;;;;20.06;76.71;101318.63;5068665;28;20713;-76
2021/08/14 06:57:06;;;;;;;7.33;4.77;;;;;;;20.20;76.63;101324.00;5067426;28;20226;-76
2021/08/14 06:59:33;;;;;;;7.70;4.60;;;;;;;20.32;76.63;101322.47;5061985;28;20209;-76
2021/08/14 07:01:59;;;;;;;5.27;4.00;;;;;;;20.29;76.74;101327.94;5062756;28;20561;-76
2021/08/14 07:04:25;;;;;;;14.97;9.13;;;;;;;20.38;75.87;101327.41;5066960;28;20556;-76
2021/08/14 07:06:53;;;;;;;5.20;4.27;;;;;;;20.50;74.72;101331.19;5071722;28;20569;-76
2021/08/14 07:09:20;;;;;;;5.93;4.47;;;;;;;20.47;73.90;101325.19;5070092;28;20564;-76
2021/08/14 07:11:47;;;;;;;6.03;4.50;;;;;;;20.54;75.50;101324.75;5058793;28;20564;-76
2021/08/14 07:14:13;;;;;;;8.13;4.67;;;;;;;20.57;74.56;101316.63;5069221;28;20683;-76
2021/08/14 07:16:40;;;;;;;5.93;4.27;;;;;;;20.62;74.63;101327.03;5068348;28;20215;-76
2021/08/14 07:19:06;;;;;;;6.40;4.43;;;;;;;20.70;73.08;101327.44;5061830;28;20206;-76
2021/08/14 07:21:33;;;;;;;5.20;4.00;;;;;;;20.68;73.41;101318.69;5063547;28;20202;-76
2021/08/14 07:24:01;;;;;;;6.67;4.20;;;;;;;20.76;72.44;101326.22;5060857;28;20221;-76
2021/08/14 07:26:27;;;;;;;6.77;4.10;;;;;;;20.79;72.56;101328.69;5051579;28;20203;-76
2021/08/14 07:28:54;;;;;;;7.53;4.70;;;;;;;20.80;73.14;101323.28;5067884;28;20214;-76
2021/08/14 07:31:20;;;;;;;6.10;4.03;;;;;;;20.90;73.76;101325.44;5065721;28;20198;-76
2021/08/14 07:33:46;;;;;;;4.70;4.00;;;;;;;20.97;71.75;101324.97;5051011;28;20220;-76
2021/08/14 07:36:13;;;;;;;6.67;5.00;;;;;;;20.98;71.06;101320.50;5066902;28;20206;-76
2021/08/14 07:38:39;;;;;;;6.73;4.10;;;;;;;21.13;71.18;101324.06;5069634;28;20213;-76
2021/08/14 07:41:09;;;;;;;5.30;3.60;;;;;;;21.16;70.79;101326.53;5064720;28;20210;-76
2021/08/14 07:43:36;;;;;;;5.07;3.33;;;;;;;21.21;65.45;101334.19;5067437;28;20281;-76
2021/08/14 07:46:02;;;;;;;5.77;3.53;;;;;;;21.31;68.87;101330.91;5068635;28;20583;-76
2021/08/14 07:55:39;;;;;;;5.07;3.43;;;;;;;21.55;66.37;101331.25;5068997;28;20211;-76
2021/08/14 07:58:12;;;;;;;6.17;3.60;;;;;;;21.73;65.27;101336.38;5070679;28;20245;-76
2021/08/14 08:04:25;;;;;;;6.20;3.67;;;;;;;21.84;65.28;101333.06;5082092;22;20891;-71
2021/08/14 08:06:51;;;;;;;5.97;2.87;;;;;;;21.97;61.47;101331.34;5043686;28;20233;-71
2021/08/14 08:09:17;;;;;;;3.90;3.13;;;;;;;22.00;62.77;101327.63;5044856;28;20207;-71
2021/08/14 08:11:44;;;;;;;6.87;3.10;;;;;;;22.11;62.03;101325.16;5044671;28;20227;-71
2021/08/14 08:14:11;;;;;;;5.00;3.30;;;;;;;22.25;62.39;101321.59;5046252;28;20222;-72
2021/08/14 08:16:38;;;;;;;4.37;3.27;;;;;;;22.40;62.90;101322.47;5039223;28;20207;-71
2021/08/14 08:19:04;;;;;;;4.90;2.90;;;;;;;22.29;60.83;101318.69;5046555;28;20203;-71
2021/08/14 08:21:30;;;;;;;5.97;3.00;;;;;;;22.35;60.87;101314.78;5043275;28;20211;-71
2021/08/14 08:23:57;;;;;;;5.10;2.70;;;;;;;22.41;60.21;101317.06;5040420;28;20203;-70
2021/08/14 08:26:24;;;;;;;5.50;2.70;;;;;;;22.40;59.97;101318.00;5043789;28;20215;-71
2021/08/14 08:28:52;;;;;;;3.87;2.70;;;;;;;22.50;58.37;101312.94;5045918;28;20234;-71
2021/08/14 08:31:19;;;;;;;4.57;2.47;;;;;;;22.46;56.90;101316.72;5037596;28;20292;-72
2021/08/14 08:33:46;;;;;;;5.00;2.67;;;;;;;22.58;55.32;101321.25;5041010;28;20237;-71
2021/08/14 08:36:12;;;;;;;4.43;2.77;;;;;;;22.67;55.75;101325.97;5043874;28;20203;-71
2021/08/14 08:38:40;;;;;;;3.23;2.43;;;;;;;22.76;56.04;101320.97;5041856;28;20605;-71
2021/08/14 08:41:07;;;;;;;3.20;2.60;;;;;;;22.83;54.29;101316.94;5040623;28;20217;-72
2021/08/14 08:43:33;;;;;;;3.63;2.60;;;;;;;22.99;56.29;101317.66;5040870;28;20228;-71
2021/08/14 08:46:00;;;;;;;2.87;2.47;;;;;;;23.04;53.91;101315.53;5047912;28;20286;-71
2021/08/14 08:48:28;;;;;;;3.37;2.50;;;;;;;23.13;53.45;101318.53;5043870;28;20593;-68
2021/08/14 08:50:56;;;;;;;3.20;2.23;;;;;;;23.15;53.04;101319.31;5038009;28;20203;-69
2021/08/14 08:53:23;;;;;;;3.63;2.47;;;;;;;23.01;50.86;101315.72;5034542;28;20743;-69
2021/08/14 08:55:49;;;;;;;3.88;2.60;;;;;;;23.17;50.69;101318.22;5041528;28;20529;-69
2021/08/14 08:58:16;;;;;;;2.50;2.22;;;;;;;23.22;50.50;101323.25;5040996;28;20592;-69
2021/08/14 09:00:42;;;;;;;5.50;2.70;;;;;;;23.36;51.36;101319.59;5041604;28;20199;-68
2021/08/14 09:03:12;;;;;;;3.20;2.50;;;;;;;23.34;50.01;101318.88;5042078;28;20229;-69
2021/08/14 09:05:50;;;;;;;3.53;2.40;;;;;;;23.36;51.28;101315.16;5036417;28;20600;-69
2021/08/14 09:08:17;;;;;;;3.60;2.20;;;;;;;23.40;51.93;101313.13;5039366;28;20203;-67
2021/08/14 09:10:43;;;;;;;3.60;2.20;;;;;;;23.48;50.40;101315.25;5041567;28;20211;-69
2021/08/14 09:13:12;;;;;;;3.60;2.35;;;;;;;23.49;50.23;101309.81;5041289;28;20222;-69
2021/08/14 09:15:38;;;;;;;3.95;2.25;;;;;;;23.43;49.69;101310.28;5039069;28;20281;-69
2021/08/14 09:18:07;;;;;;;3.53;2.38;;;;;;;23.55;50.99;101296.09;5044147;28;20580;-68
2021/08/14 09:20:44;;;;;;;3.63;2.30;;;;;;;23.58;49.90;101303.00;5040881;28;20198;-69
2021/08/14 09:23:13;;;;;;;4.40;2.28;;;;;;;23.67;49.50;101296.19;5041963;28;20226;-69
2021/08/14 09:25:41;;;;;;;4.55;2.25;;;;;;;23.76;48.82;101296.41;5038374;28;20196;-69
2021/08/14 09:28:09;;;;;;;4.53;2.53;;;;;;;23.90;48.06;101300.75;5043028;28;20607;-68
2021/08/14 09:30:48;;;;;;;3.95;2.70;;;;;;;23.96;50.35;101289.66;5040027;28;20217;-68
2021/08/14 09:33:16;;;;;;;2.97;2.10;;;;;;;24.06;48.51;101288.97;5038974;28;20309;-69
2021/08/14 09:35:44;;;;;;;3.00;2.53;;;;;;;24.15;49.27;101294.50;5041938;28;20222;-69
2021/08/14 09:38:13;;;;;;;3.85;2.20;;;;;;;24.06;49.09;101287.16;5041707;28;20519;-68
2021/08/14 09:40:42;;;;;;;3.38;2.50;;;;;;;24.13;48.67;101285.78;5042210;28;20218;-68
2021/08/14 09:43:09;;;;;;;3.40;2.28;;;;;;;24.22;49.24;101284.25;5039378;28;20225;-68
2021/08/14 09:45:36;;;;;;;2.63;2.13;;;;;;;24.29;46.37;101281.97;5044043;28;20298;-69
2021/08/14 09:48:19;;;;;;;2.70;2.10;;;;;;;24.35;47.86;101279.72;5039467;28;20214;-68
2021/08/14 09:50:45;;;;;;;4.00;2.58;;;;;;;24.50;46.79;101283.06;5034805;28;20562;-70
2021/08/14 09:53:17;;;;;;;3.47;2.22;;;;;;;24.44;46.69;101285.31;5036102;28;20619;-70
2021/08/14 09:55:46;;;;;;;3.53;2.20;;;;;;;24.57;48.08;101267.47;5042521;28;20230;-71
2021/08/14 09:58:15;;;;;;;2.88;2.00;;;;;;;24.64;46.08;101276.69;5043454;28;20596;-70
2021/08/14 10:00:44;;;;;;;4.47;2.08;;;;;;;24.52;45.65;101275.78;5043813;28;20239;-70
2021/08/14 10:03:14;;;;;;;3.22;2.17;;;;;;;24.48;45.53;101273.47;5041023;28;20223;-71
2021/08/14 10:05:41;;;;;;;3.72;2.30;;;;;;;24.62;46.23;101264.47;5039459;28;20211;-71
2021/08/14 10:08:07;;;;;;;3.15;2.42;;;;;;;24.79;46.31;101260.53;5041131;28;20203;-71
2021/08/14 10:10:35;;;;;;;3.60;2.65;;;;;;;24.83;45.81;101254.00;5040293;28;20203;-71
2021/08/14 10:13:02;;;;;;;5.25;2.45;;;;;;;24.97;45.67;101259.09;5044030;28;20924;-71
2021/08/14 10:15:29;;;;;;;3.67;2.40;;;;;;;25.01;47.78;101249.91;5040185;28;20772;-70
2021/08/14 10:17:56;;;;;;;3.38;2.38;;;;;;;25.16;46.24;101249.69;5045337;28;20203;-71
2021/08/14 10:20:23;;;;;;;4.20;2.53;;;;;;;25.17;49.20;101238.91;5041246;28;20203;-71
2021/08/14 10:22:56;;;;;;;4.75;2.53;;;;;;;25.12;47.24;101247.25;5045327;28;20708;-70
2021/08/14 10:25:23;;;;;;;5.15;2.63;;;;;;;25.18;48.45;101229.06;5043324;28;20672;-71
2021/08/14 10:27:56;;;;;;;4.97;2.60;;;;;;;25.30;48.37;101233.47;5044992;28;20862;-70
2021/08/14 10:30:48;;;;;;;3.75;2.60;;;;;;;25.39;47.75;101230.06;5039912;28;20302;-70
2021/08/14 10:33:40;;;;;;;3.65;2.88;;;;;;;25.43;47.55;101222.66;5020556;28;20231;-70
2021/08/14 10:36:43;;;;;;;3.70;2.92;;;;;;;25.36;45.77;101224.13;5029755;28;20235;-71
2021/08/14 10:39:21;;;;;;;2.90;2.25;;;;;;;25.48;45.08;101228.50;5043642;28;20237;-71
2021/08/14 10:41:50;;;;;;;3.70;2.53;;;;;;;25.44;44.31;101217.22;5038033;28;20325;-70
2021/08/14 10:44:36;;;;;;;3.63;2.40;;;;;;;25.62;46.29;101209.53;5045183;28;20191;-69
2021/08/14 10:47:04;;;;;;;3.45;2.47;;;;;;;25.58;43.32;101226.78;5040157;28;20210;-71
2021/08/14 10:49:46;;;;;;;4.32;2.45;;;;;;;25.58;41.21;101226.78;5044468;28;20211;-70
2021/08/14 10:52:14;;;;;;;8.20;2.83;;;;;;;25.66;43.00;101219.03;5042187;28;20227;-70
2021/08/14 10:55:12;;;;;;;4.13;2.63;;;;;;;25.76;44.10;101210.25;5043831;28;20215;-69
2021/08/14 10:57:48;;;;;;;4.55;2.40;;;;;;;25.81;40.81;101213.41;5037728;28;20712;-70
2021/08/14 11:00:21;;;;;;;3.45;2.33;;;;;;;25.83;42.02;101214.97;5031160;28;20207;-70
2021/08/14 11:03:05;;;;;;;4.07;2.67;;;;;;;26.00;41.80;101210.94;5041507;28;20267;-71
2021/08/14 11:05:33;;;;;;;5.05;2.60;;;;;;;26.09;41.74;101213.84;5039862;28;20215;-69
2021/08/14 11:08:03;;;;;;;3.75;2.70;;;;;;;26.03;42.18;101200.03;5040850;28;20645;-71
2021/08/14 11:10:35;;;;;;;7.03;3.50;;;;;;;26.08;42.81;101199.63;5038159;28;20685;-70
2021/08/14 11:13:02;;;;;;;3.40;2.55;;;;;;;26.00;41.12;101208.28;5045539;28;20239;-70
2021/08/14 11:15:37;;;;;;;5.05;2.65;;;;;;;25.94;41.55;101205.25;5040426;28;20251;-71
2021/08/14 11:18:04;;;;;;;3.33;2.70;;;;;;;25.96;41.84;101198.84;5038392;28;20214;-69
2021/08/14 11:20:32;;;;;;;4.55;2.40;;;;;;;26.04;40.24;101201.69;5038369;28;21698;-70
2021/08/14 11:23:00;;;;;;;4.90;2.97;;;;;;;26.12;40.95;101185.06;5043525;28;20240;-71
2021/08/14 11:25:28;;;;;;;3.42;2.38;;;;;;;26.30;41.75;101174.63;5044617;28;20198;-70
2021/08/14 11:27:57;;;;;;;4.03;2.60;;;;;;;26.36;41.47;101174.09;5044970;28;20199;-69
2021/08/14 11:30:26;;;;;;;3.80;2.85;;;;;;;26.46;42.69;101176.84;5045702;28;20207;-70
2021/08/14 11:32:54;;;;;;;3.40;2.33;;;;;;;26.46;42.55;101160.81;5042751;28;20223;-69
2021/08/14 11:35:23;;;;;;;4.55;2.90;;;;;;;26.45;42.26;101162.66;5042298;28;20234;-70
2021/08/14 11:37:52;;;;;;;4.07;2.90;;;;;;;26.44;41.38;101162.78;5040394;28;20287;-70
2021/08/14 11:40:21;;;;;;;4.25;2.63;;;;;;;26.41;41.45;101163.03;5038118;28;20195;-69
2021/08/14 11:42:58;;;;;;;3.47;2.60;;;;;;;26.54;41.82;101153.00;5032590;28;20796;-70
2021/08/14 11:45:25;;;;;;;5.03;2.80;;;;;;;26.58;42.04;101157.09;5039627;28;20219;-69
2021/08/14 11:47:58;;;;;;;4.65;2.83;;;;;;;26.77;41.12;101150.19;5039146;28;20203;-69